sensor_id;sensor_type;location;lat;lon;timestamp;pressure;altitude;pressure_sealevel;temperature;humidity
4586;BME280;2305;50.118;8.952;2023-04-06T00:01:31;100908.66;;;3.23;100.00
4586;BME280;2305;50.118;8.952;2023-04-06T00:04:01;100905.38;;;3.20;100.00
4586;BME280;2305;50.118;8.952;2023-04-06T00:06:30;100907.13;;;3.19;100.00
4586;BME280;2305;50.118;8.952;2023-04-06T00:09:00;100906.34;;;3.17;100.00
4586;BME280;2305;50.118;8.952;2023-04-06T00:11:29;100908.00;;;3.20;100.00
4586;BME280;2305;50.118;8.952;2023-04-06T00:13:57;100913.34;;;3.15;100.00
4586;BME280;2305;50.118;8.952;2023-04-06T00:16:27;100904.78;;;3.13;100.00
4586;BME280;2305;50.118;8.952;2023-04-06T00:18:56;100899.63;;;3.12;100.00
4586;BME280;2305;50.118;8.952;2023-04-06T00:21:25;100894.63;;;3.07;100.00
4586;BME280;2305;50.118;8.952;2023-04-06T00:23:54;100892.81;;;3.09;100.00
4586;BME280;2305;50.118;8.952;2023-04-06T00:26:23;100887.66;;;3.08;100.00
4586;BME280;2305;50.118;8.952;2023-04-06T00:28:54;100881.03;;;3.01;100.00
4586;BME280;2305;50.118;8.952;2023-04-06T00:31:22;100887.16;;;3.00;100.00
4586;BME280;2305;50.118;8.952;2023-04-06T00:33:53;100892.41;;;2.98;100.00
4586;BME280;2305;50.118;8.952;2023-04-06T00:36:22;100889.13;;;2.93;100.00
4586;BME280;2305;50.118;8.952;2023-04-06T00:38:50;100893.50;;;2.93;100.00
4586;BME280;2305;50.118;8.952;2023-04-06T00:41:19;100884.84;;;2.92;100.00
4586;BME280;2305;50.118;8.952;2023-04-06T00:43:49;100881.53;;;2.89;100.00
4586;BME280;2305;50.118;8.952;2023-04-06T00:46:18;100881.66;;;2.86;100.00
4586;BME280;2305;50.118;8.952;2023-04-06T00:48:46;100885.34;;;2.80;100.00
4586;BME280;2305;50.118;8.952;2023-04-06T00:51:15;100887.13;;;2.80;100.00
4586;BME280;2305;50.118;8.952;2023-04-06T00:53:43;100884.47;;;2.81;100.00
4586;BME280;2305;50.118;8.952;2023-04-06T00:56:13;100875.75;;;2.82;100.00
4586;BME280;2305;50.118;8.952;2023-04-06T00:58:50;100866.25;;;2.81;100.00
4586;BME280;2305;50.118;8.952;2023-04-06T01:01:18;100870.66;;;2.79;100.00
4586;BME280;2305;50.118;8.952;2023-04-06T01:03:50;100869.88;;;2.77;100.00
4586;BME280;2305;50.118;8.952;2023-04-06T01:06:19;100870.78;;;2.76;100.00
4586;BME280;2305;50.118;8.952;2023-04-06T01:08:56;100870.91;;;2.73;100.00
4586;BME280;2305;50.118;8.952;2023-04-06T01:11:26;100868.28;;;2.73;100.00
4586;BME280;2305;50.118;8.952;2023-04-06T01:13:55;100864.91;;;2.71;100.00
4586;BME280;2305;50.118;8.952;2023-04-06T01:16:27;100865.88;;;2.69;100.00
4586;BME280;2305;50.118;8.952;2023-04-06T01:19:21;100861.66;;;2.66;100.00
4586;BME280;2305;50.118;8.952;2023-04-06T01:21:54;100865.16;;;2.65;100.00
4586;BME280;2305;50.118;8.952;2023-04-06T01:24:30;100860.75;;;2.67;100.00
4586;BME280;2305;50.118;8.952;2023-04-06T01:27:08;100858.28;;;2.64;100.00
4586;BME280;2305;50.118;8.952;2023-04-06T01:29:57;100856.78;;;2.59;100.00
4586;BME280;2305;50.118;8.952;2023-04-06T01:32:48;100855.19;;;2.55;100.00
4586;BME280;2305;50.118;8.952;2023-04-06T01:35:27;100848.25;;;2.55;100.00
4586;BME280;2305;50.118;8.952;2023-04-06T01:38:12;100837.91;;;2.54;100.00
4586;BME280;2305;50.118;8.952;2023-04-06T01:40:41;100847.66;;;2.49;100.00
4586;BME280;2305;50.118;8.952;2023-04-06T01:43:10;100839.00;;;2.48;100.00
4586;BME280;2305;50.118;8.952;2023-04-06T01:46:16;100838.28;;;2.45;100.00
4586;BME280;2305;50.118;8.952;2023-04-06T01:48:44;100839.00;;;2.48;100.00
4586;BME280;2305;50.118;8.952;2023-04-06T01:51:30;100841.19;;;2.37;100.00
4586;BME280;2305;50.118;8.952;2023-04-06T01:54:01;100845.53;;;2.37;100.00
4586;BME280;2305;50.118;8.952;2023-04-06T01:56:50;100837.69;;;2.38;100.00
4586;BME280;2305;50.118;8.952;2023-04-06T01:59:32;100837.69;;;2.38;100.00
4586;BME280;2305;50.118;8.952;2023-04-06T02:02:07;100833.47;;;2.36;100.00
4586;BME280;2305;50.118;8.952;2023-04-06T02:04:36;100835.97;;;2.37;100.00
4586;BME280;2305;50.118;8.952;2023-04-06T02:07:11;100837.69;;;2.38;100.00
4586;BME280;2305;50.118;8.952;2023-04-06T02:09:40;100836.88;;;2.36;100.00
4586;BME280;2305;50.118;8.952;2023-04-06T02:12:15;100840.44;;;2.34;100.00
4586;BME280;2305;50.118;8.952;2023-04-06T02:14:43;100837.06;;;2.32;100.00
4586;BME280;2305;50.118;8.952;2023-04-06T02:17:11;100836.34;;;2.28;100.00
4586;BME280;2305;50.118;8.952;2023-04-06T02:19:39;100835.56;;;2.26;100.00
4586;BME280;2305;50.118;8.952;2023-04-06T02:22:08;100824.41;;;2.24;100.00
4586;BME280;2305;50.118;8.952;2023-04-06T02:24:36;100832.34;;;2.20;100.00
4586;BME280;2305;50.118;8.952;2023-04-06T02:27:04;100831.53;;;2.19;100.00
4586;BME280;2305;50.118;8.952;2023-04-06T02:29:34;100834.00;;;2.22;100.00
4586;BME280;2305;50.118;8.952;2023-04-06T02:32:03;100834.84;;;2.23;100.00
4586;BME280;2305;50.118;8.952;2023-04-06T02:34:32;100830.81;;;2.16;100.00
4586;BME280;2305;50.118;8.952;2023-04-06T02:37:00;100829.28;;;2.10;100.00
4586;BME280;2305;50.118;8.952;2023-04-06T02:39:29;100831.75;;;2.13;100.00
4586;BME280;2305;50.118;8.952;2023-04-06T02:41:58;100829.16;;;2.13;100.00
4586;BME280;2305;50.118;8.952;2023-04-06T02:44:26;100829.94;;;2.15;100.00
4586;BME280;2305;50.118;8.952;2023-04-06T02:46:58;100829.03;;;2.16;100.00
4586;BME280;2305;50.118;8.952;2023-04-06T02:49:27;100830.16;;;2.09;100.00
4586;BME280;2305;50.118;8.952;2023-04-06T02:51:57;100826.78;;;2.07;100.00
4586;BME280;2305;50.118;8.952;2023-04-06T02:54:32;100827.53;;;2.11;100.00
4586;BME280;2305;50.118;8.952;2023-04-06T02:57:02;100825.06;;;2.08;100.00
4586;BME280;2305;50.118;8.952;2023-04-06T02:59:38;100823.38;;;2.07;100.00
4586;BME280;2305;50.118;8.952;2023-04-06T03:02:15;100829.53;;;2.04;100.00
4586;BME280;2305;50.118;8.952;2023-04-06T03:04:44;100823.59;;;2.01;100.00
4586;BME280;2305;50.118;8.952;2023-04-06T03:07:23;100833.91;;;2.02;100.00
4586;BME280;2305;50.118;8.952;2023-04-06T03:09:51;100833.19;;;1.99;100.00
4586;BME280;2305;50.118;8.952;2023-04-06T03:12:20;100833.31;;;1.96;100.00
4586;BME280;2305;50.118;8.952;2023-04-06T03:15:09;100830.91;;;1.91;100.00
4586;BME280;2305;50.118;8.952;2023-04-06T03:17:44;100831.75;;;1.92;100.00
4586;BME280;2305;50.118;8.952;2023-04-06T03:20:26;100843.13;;;1.89;100.00
4586;BME280;2305;50.118;8.952;2023-04-06T03:22:54;100838.00;;;1.86;100.00
4586;BME280;2305;50.118;8.952;2023-04-06T03:25:27;100842.44;;;1.84;100.00
4586;BME280;2305;50.118;8.952;2023-04-06T03:28:00;100836.31;;;1.85;100.00
4586;BME280;2305;50.118;8.952;2023-04-06T03:30:31;100832.09;;;1.83;100.00
4586;BME280;2305;50.118;8.952;2023-04-06T03:33:02;100832.16;;;1.81;100.00
4586;BME280;2305;50.118;8.952;2023-04-06T03:35:36;100835.72;;;1.79;100.00
4586;BME280;2305;50.118;8.952;2023-04-06T03:38:04;100831.34;;;1.79;100.00
4586;BME280;2305;50.118;8.952;2023-04-06T03:40:33;100828.88;;;1.76;100.00
4586;BME280;2305;50.118;8.952;2023-04-06T03:43:02;100838.25;;;1.80;100.00
4586;BME280;2305;50.118;8.952;2023-04-06T03:45:34;100835.78;;;1.77;100.00
4586;BME280;2305;50.118;8.952;2023-04-06T03:48:07;100834.09;;;1.76;100.00
4586;BME280;2305;50.118;8.952;2023-04-06T03:50:37;100846.13;;;1.79;100.00
4586;BME280;2305;50.118;8.952;2023-04-06T03:53:05;100841.75;;;1.79;100.00
4586;BME280;2305;50.118;8.952;2023-04-06T03:55:34;100843.34;;;1.83;100.00
4586;BME280;2305;50.118;8.952;2023-04-06T03:58:03;100838.97;;;1.84;100.00
4586;BME280;2305;50.118;8.952;2023-04-06T04:00:31;100845.16;;;1.81;100.00
4586;BME280;2305;50.118;8.952;2023-04-06T04:03:00;100846.22;;;1.76;100.00
4586;BME280;2305;50.118;8.952;2023-04-06T04:05:30;100841.97;;;1.73;100.00
4586;BME280;2305;50.118;8.952;2023-04-06T04:07:59;100848.97;;;1.71;100.00
4586;BME280;2305;50.118;8.952;2023-04-06T04:10:28;100843.75;;;1.73;100.00
4586;BME280;2305;50.118;8.952;2023-04-06T04:12:56;100848.03;;;1.74;100.00
4586;BME280;2305;50.118;8.952;2023-04-06T04:15:24;100844.47;;;1.76;100.00
4586;BME280;2305;50.118;8.952;2023-04-06T04:17:52;100843.78;;;1.71;100.00
4586;BME280;2305;50.118;8.952;2023-04-06T04:20:20;100848.97;;;1.71;100.00
4586;BME280;2305;50.118;8.952;2023-04-06T04:22:50;100854.19;;;1.71;100.00
4586;BME280;2305;50.118;8.952;2023-04-06T04:25:18;100852.50;;;1.70;100.00
4586;BME280;2305;50.118;8.952;2023-04-06T04:27:50;100853.41;;;1.69;100.00
4586;BME280;2305;50.118;8.952;2023-04-06T04:30:22;100856.16;;;1.65;100.00
4586;BME280;2305;50.118;8.952;2023-04-06T04:32:53;100855.25;;;1.66;100.00
4586;BME280;2305;50.118;8.952;2023-04-06T04:35:26;100851.75;;;1.67;100.00
4586;BME280;2305;50.118;8.952;2023-04-06T04:37:56;100853.63;;;1.63;100.00
4586;BME280;2305;50.118;8.952;2023-04-06T04:40:25;100862.41;;;1.59;100.00
4586;BME280;2305;50.118;8.952;2023-04-06T04:43:02;100856.38;;;1.59;100.00
4586;BME280;2305;50.118;8.952;2023-04-06T04:45:33;100859.94;;;1.56;100.00
4586;BME280;2305;50.118;8.952;2023-04-06T04:48:28;100856.56;;;1.54;100.00
4586;BME280;2305;50.118;8.952;2023-04-06T04:51:00;100861.66;;;1.56;100.00
4586;BME280;2305;50.118;8.952;2023-04-06T04:53:41;100858.28;;;1.54;100.00
4586;BME280;2305;50.118;8.952;2023-04-06T04:56:19;100860.16;;;1.50;100.00
4586;BME280;2305;50.118;8.952;2023-04-06T04:58:52;100874.91;;;1.50;100.00
4586;BME280;2305;50.118;8.952;2023-04-06T05:01:21;100870.66;;;1.47;100.00
4586;BME280;2305;50.118;8.952;2023-04-06T05:03:50;100872.22;;;1.51;100.00
4586;BME280;2305;50.118;8.952;2023-04-06T05:06:18;100869.72;;;1.50;100.00
4586;BME280;2305;50.118;8.952;2023-04-06T05:08:49;100874.94;;;1.48;100.00
4586;BME280;2305;50.118;8.952;2023-04-06T05:11:17;100881.94;;;1.46;100.00
4586;BME280;2305;50.118;8.952;2023-04-06T05:13:53;100879.22;;;1.49;100.00
4586;BME280;2305;50.118;8.952;2023-04-06T05:16:24;100884.56;;;1.46;100.00
4586;BME280;2305;50.118;8.952;2023-04-06T05:18:53;100880.13;;;1.48;100.00
4586;BME280;2305;50.118;8.952;2023-04-06T05:21:26;100882.53;;;1.54;100.00
4586;BME280;2305;50.118;8.952;2023-04-06T05:24:06;100879.75;;;1.59;100.00
4586;BME280;2305;50.118;8.952;2023-04-06T05:26:36;100877.84;;;1.64;100.00
4586;BME280;2305;50.118;8.952;2023-04-06T05:29:12;100875.88;;;1.70;100.00
4586;BME280;2305;50.118;8.952;2023-04-06T05:31:40;100877.59;;;1.70;100.00
4586;BME280;2305;50.118;8.952;2023-04-06T05:34:09;100874.94;;;1.71;100.00
4586;BME280;2305;50.118;8.952;2023-04-06T05:36:38;100882.56;;;1.76;100.00
4586;BME280;2305;50.118;8.952;2023-04-06T05:39:17;100876.41;;;1.78;100.00
4586;BME280;2305;50.118;8.952;2023-04-06T05:41:51;100877.19;;;1.80;100.00
4586;BME280;2305;50.118;8.952;2023-04-06T05:44:30;100879.66;;;1.85;100.00
4586;BME280;2305;50.118;8.952;2023-04-06T05:47:06;100881.25;;;1.87;100.00
4586;BME280;2305;50.118;8.952;2023-04-06T05:49:36;100883.59;;;1.95;100.00
4586;BME280;2305;50.118;8.952;2023-04-06T05:52:09;100886.16;;;1.96;100.00
4586;BME280;2305;50.118;8.952;2023-04-06T05:54:44;100884.28;;;2.00;100.00
4586;BME280;2305;50.118;8.952;2023-04-06T05:57:13;100884.09;;;2.04;100.00
4586;BME280;2305;50.118;8.952;2023-04-06T05:59:42;100882.81;;;2.14;100.00
4586;BME280;2305;50.118;8.952;2023-04-06T06:02:12;100877.22;;;2.25;100.00
4586;BME280;2305;50.118;8.952;2023-04-06T06:04:46;100888.16;;;2.33;100.00
4586;BME280;2305;50.118;8.952;2023-04-06T06:07:16;100886.22;;;2.38;100.00
4586;BME280;2305;50.118;8.952;2023-04-06T06:09:58;100886.00;;;2.44;100.00
4586;BME280;2305;50.118;8.952;2023-04-06T06:12:39;100891.75;;;2.52;100.00
4586;BME280;2305;50.118;8.952;2023-04-06T06:15:07;100889.72;;;2.58;100.00
4586;BME280;2305;50.118;8.952;2023-04-06T06:17:45;100897.97;;;2.69;100.00
4586;BME280;2305;50.118;8.952;2023-04-06T06:20:14;100892.56;;;2.74;100.00
4586;BME280;2305;50.118;8.952;2023-04-06T06:22:44;100891.53;;;2.78;100.00
4586;BME280;2305;50.118;8.952;2023-04-06T06:25:18;100892.19;;;2.83;100.00
4586;BME280;2305;50.118;8.952;2023-04-06T06:27:49;100889.59;;;2.83;100.00
4586;BME280;2305;50.118;8.952;2023-04-06T06:30:18;100888.63;;;2.85;100.00
4586;BME280;2305;50.118;8.952;2023-04-06T06:32:51;100886.72;;;2.89;100.00
4586;BME280;2305;50.118;8.952;2023-04-06T06:35:19;100878.72;;;2.93;100.00
4586;BME280;2305;50.118;8.952;2023-04-06T06:37:50;100889.75;;;3.00;100.00
4586;BME280;2305;50.118;8.952;2023-04-06T06:40:23;100887.66;;;3.08;100.00
4586;BME280;2305;50.118;8.952;2023-04-06T06:42:54;100888.38;;;3.11;100.00
4586;BME280;2305;50.118;8.952;2023-04-06T06:45:30;100893.31;;;3.37;100.00
4586;BME280;2305;50.118;8.952;2023-04-06T06:47:58;100888.25;;;3.34;100.00
4586;BME280;2305;50.118;8.952;2023-04-06T06:50:32;100892.00;;;3.47;100.00
4586;BME280;2305;50.118;8.952;2023-04-06T06:53:01;100894.25;;;3.55;100.00
4586;BME280;2305;50.118;8.952;2023-04-06T06:55:31;100892.97;;;3.65;100.00
4586;BME280;2305;50.118;8.952;2023-04-06T06:57:59;100889.13;;;3.73;100.00
4586;BME280;2305;50.118;8.952;2023-04-06T07:00:28;100883.59;;;3.79;100.00
4586;BME280;2305;50.118;8.952;2023-04-06T07:02:58;100880.22;;;3.77;100.00
4586;BME280;2305;50.118;8.952;2023-04-06T07:05:27;100879.09;;;3.83;100.00
4586;BME280;2305;50.118;8.952;2023-04-06T07:07:57;100877.63;;;3.96;100.00
4586;BME280;2305;50.118;8.952;2023-04-06T07:10:25;100882.63;;;4.00;100.00
4586;BME280;2305;50.118;8.952;2023-04-06T07:12:55;100878.81;;;4.07;100.00
4586;BME280;2305;50.118;8.952;2023-04-06T07:15:26;100879.75;;;4.06;100.00
4586;BME280;2305;50.118;8.952;2023-04-06T07:17:54;100879.97;;;4.20;100.00
4586;BME280;2305;50.118;8.952;2023-04-06T07:20:23;100879.59;;;4.28;100.00
4586;BME280;2305;50.118;8.952;2023-04-06T07:22:52;100880.09;;;4.35;100.00
4586;BME280;2305;50.118;8.952;2023-04-06T07:25:20;100883.72;;;4.50;100.00
4586;BME280;2305;50.118;8.952;2023-04-06T07:27:51;100887.13;;;4.52;100.00
4586;BME280;2305;50.118;8.952;2023-04-06T07:30:25;100878.91;;;4.59;100.00
4586;BME280;2305;50.118;8.952;2023-04-06T07:32:56;100880.06;;;4.71;100.00
4586;BME280;2305;50.118;8.952;2023-04-06T07:35:27;100877.09;;;4.78;100.00
4586;BME280;2305;50.118;8.952;2023-04-06T07:37:57;100885.31;;;4.88;100.00
4586;BME280;2305;50.118;8.952;2023-04-06T07:40:26;100878.59;;;5.01;100.00
4586;BME280;2305;50.118;8.952;2023-04-06T07:42:56;100879.19;;;5.06;100.00
4586;BME280;2305;50.118;8.952;2023-04-06T07:45:28;100888.09;;;5.19;100.00
4586;BME280;2305;50.118;8.952;2023-04-06T07:47:56;100881.16;;;5.35;100.00
4586;BME280;2305;50.118;8.952;2023-04-06T07:50:26;100879.16;;;5.40;100.00
4586;BME280;2305;50.118;8.952;2023-04-06T07:52:56;100876.59;;;5.55;100.00
4586;BME280;2305;50.118;8.952;2023-04-06T07:55:27;100868.09;;;5.67;100.00
4586;BME280;2305;50.118;8.952;2023-04-06T07:57:56;100859.78;;;5.76;100.00
4586;BME280;2305;50.118;8.952;2023-04-06T08:00:25;100862.53;;;5.90;100.00
4586;BME280;2305;50.118;8.952;2023-04-06T08:02:57;100867.09;;;6.02;100.00
4586;BME280;2305;50.118;8.952;2023-04-06T08:05:25;100862.63;;;6.20;100.00
4586;BME280;2305;50.118;8.952;2023-04-06T08:07:54;100864.56;;;6.32;100.00
4586;BME280;2305;50.118;8.952;2023-04-06T08:10:24;100867.34;;;6.44;100.00
4586;BME280;2305;50.118;8.952;2023-04-06T08:12:52;100860.91;;;6.50;100.00
4586;BME280;2305;50.118;8.952;2023-04-06T08:15:22;100862.69;;;6.65;100.00
4586;BME280;2305;50.118;8.952;2023-04-06T08:17:50;100855.91;;;6.76;100.00
4586;BME280;2305;50.118;8.952;2023-04-06T08:20:23;100856.00;;;6.75;100.00
4586;BME280;2305;50.118;8.952;2023-04-06T08:22:53;100861.53;;;6.84;100.00
4586;BME280;2305;50.118;8.952;2023-04-06T08:25:26;100867.09;;;6.94;100.00
4586;BME280;2305;50.118;8.952;2023-04-06T08:27:56;100866.56;;;7.03;100.00
4586;BME280;2305;50.118;8.952;2023-04-06T08:30:25;100857.13;;;7.14;100.00
4586;BME280;2305;50.118;8.952;2023-04-06T08:32:54;100861.66;;;7.26;100.00
4586;BME280;2305;50.118;8.952;2023-04-06T08:35:24;100864.75;;;7.33;100.00
4586;BME280;2305;50.118;8.952;2023-04-06T08:37:53;100855.22;;;7.46;100.00
4586;BME280;2305;50.118;8.952;2023-04-06T08:40:23;100862.50;;;7.55;99.82
4586;BME280;2305;50.118;8.952;2023-04-06T08:42:54;100860.47;;;7.60;98.05
4586;BME280;2305;50.118;8.952;2023-04-06T08:45:25;100852.88;;;7.69;95.06
4586;BME280;2305;50.118;8.952;2023-04-06T08:47:54;100857.56;;;7.78;99.37
4586;BME280;2305;50.118;8.952;2023-04-06T08:50:24;100857.94;;;7.86;93.96
4586;BME280;2305;50.118;8.952;2023-04-06T08:52:53;100861.41;;;8.01;95.23
4586;BME280;2305;50.118;8.952;2023-04-06T08:55:23;100860.59;;;8.13;96.56
4586;BME280;2305;50.118;8.952;2023-04-06T08:58:00;100861.56;;;8.26;98.39
4586;BME280;2305;50.118;8.952;2023-04-06T09:00:31;100856.66;;;8.34;96.53
4586;BME280;2305;50.118;8.952;2023-04-06T09:03:00;100856.63;;;8.48;94.93
4586;BME280;2305;50.118;8.952;2023-04-06T09:05:29;100850.88;;;8.55;90.52
4586;BME280;2305;50.118;8.952;2023-04-06T09:07:57;100842.22;;;8.67;91.59
4586;BME280;2305;50.118;8.952;2023-04-06T09:10:26;100852.53;;;8.82;91.55
4586;BME280;2305;50.118;8.952;2023-04-06T09:13:03;100841.31;;;8.93;84.98
4586;BME280;2305;50.118;8.952;2023-04-06T09:15:33;100846.59;;;9.05;80.35
4586;BME280;2305;50.118;8.952;2023-04-06T09:18:03;100841.69;;;9.13;79.83
4586;BME280;2305;50.118;8.952;2023-04-06T09:20:35;100835.47;;;9.27;78.45
4586;BME280;2305;50.118;8.952;2023-04-06T09:23:03;100840.97;;;9.36;80.95
4586;BME280;2305;50.118;8.952;2023-04-06T09:25:32;100831.38;;;9.48;82.79
4586;BME280;2305;50.118;8.952;2023-04-06T09:28:01;100837.34;;;9.62;81.79
4586;BME280;2305;50.118;8.952;2023-04-06T09:30:30;100828.31;;;9.66;75.84
4586;BME280;2305;50.118;8.952;2023-04-06T09:32:59;100827.66;;;9.75;75.18
4586;BME280;2305;50.118;8.952;2023-04-06T09:35:27;100818.69;;;9.90;71.34
4586;BME280;2305;50.118;8.952;2023-04-06T09:37:59;100822.78;;;10.07;73.30
4586;BME280;2305;50.118;8.952;2023-04-06T09:40:47;100818.22;;;10.21;66.92
4586;BME280;2305;50.118;8.952;2023-04-06T09:43:27;100821.47;;;10.25;71.07
4586;BME280;2305;50.118;8.952;2023-04-06T09:45:56;100811.59;;;10.39;70.05
4586;BME280;2305;50.118;8.952;2023-04-06T09:48:25;100814.81;;;10.55;68.00
4586;BME280;2305;50.118;8.952;2023-04-06T09:50:59;100812.03;;;10.69;70.84
4586;BME280;2305;50.118;8.952;2023-04-06T09:53:36;100815.75;;;10.78;67.10
4586;BME280;2305;50.118;8.952;2023-04-06T09:56:11;100818.44;;;10.89;66.36
4586;BME280;2305;50.118;8.952;2023-04-06T09:58:45;100809.94;;;10.96;66.22
4586;BME280;2305;50.118;8.952;2023-04-06T10:01:15;100811.91;;;11.05;63.20
4586;BME280;2305;50.118;8.952;2023-04-06T10:03:56;100811.91;;;11.16;66.97
4586;BME280;2305;50.118;8.952;2023-04-06T10:06:31;100809.75;;;11.21;65.38
4586;BME280;2305;50.118;8.952;2023-04-06T10:09:07;100799.72;;;11.37;63.45
4586;BME280;2305;50.118;8.952;2023-04-06T10:11:36;100806.44;;;11.52;62.86
4586;BME280;2305;50.118;8.952;2023-04-06T10:14:05;100816.69;;;11.68;59.23
4586;BME280;2305;50.118;8.952;2023-04-06T10:16:34;100810.66;;;11.77;57.04
4586;BME280;2305;50.118;8.952;2023-04-06T10:19:09;100811.53;;;11.77;56.74
4586;BME280;2305;50.118;8.952;2023-04-06T10:21:38;100808.25;;;11.85;56.04
4586;BME280;2305;50.118;8.952;2023-04-06T10:24:10;100797.81;;;11.94;57.59
4586;BME280;2305;50.118;8.952;2023-04-06T10:26:39;100802.84;;;12.08;55.44
4586;BME280;2305;50.118;8.952;2023-04-06T10:29:10;100795.88;;;12.07;54.99
4586;BME280;2305;50.118;8.952;2023-04-06T10:31:42;100785.75;;;12.23;55.32
4586;BME280;2305;50.118;8.952;2023-04-06T10:34:11;100792.56;;;12.37;54.89
4586;BME280;2305;50.118;8.952;2023-04-06T10:36:39;100801.09;;;12.40;56.09
4586;BME280;2305;50.118;8.952;2023-04-06T10:39:07;100785.44;;;12.48;54.19
4586;BME280;2305;50.118;8.952;2023-04-06T10:41:42;100795.97;;;12.59;54.31
4586;BME280;2305;50.118;8.952;2023-04-06T10:44:17;100791.13;;;12.64;54.40
4586;BME280;2305;50.118;8.952;2023-04-06T10:46:57;100776.44;;;12.71;53.61
4586;BME280;2305;50.118;8.952;2023-04-06T10:49:30;100779.88;;;12.83;51.39
4586;BME280;2305;50.118;8.952;2023-04-06T10:51:58;100776.13;;;12.85;52.08
4586;BME280;2305;50.118;8.952;2023-04-06T10:54:27;100775.47;;;12.93;52.16
4586;BME280;2305;50.118;8.952;2023-04-06T10:56:58;100771.03;;;12.93;51.75
4586;BME280;2305;50.118;8.952;2023-04-06T10:59:29;100765.16;;;12.90;52.24
4586;BME280;2305;50.118;8.952;2023-04-06T11:01:57;100767.91;;;12.99;49.17
4586;BME280;2305;50.118;8.952;2023-04-06T11:04:27;100764.69;;;12.96;50.58
4586;BME280;2305;50.118;8.952;2023-04-06T11:06:58;100755.34;;;13.12;51.06
4586;BME280;2305;50.118;8.952;2023-04-06T11:09:29;100765.13;;;13.21;48.89
4586;BME280;2305;50.118;8.952;2023-04-06T11:12:00;100749.94;;;13.23;48.42
4586;BME280;2305;50.118;8.952;2023-04-06T11:14:30;100749.13;;;13.23;47.37
4586;BME280;2305;50.118;8.952;2023-04-06T11:16:58;100755.69;;;13.28;46.71
4586;BME280;2305;50.118;8.952;2023-04-06T11:19:27;100753.84;;;13.19;46.20
4586;BME280;2305;50.118;8.952;2023-04-06T11:22:05;100744.41;;;13.26;46.09
4586;BME280;2305;50.118;8.952;2023-04-06T11:24:34;100741.53;;;13.39;45.09
4586;BME280;2305;50.118;8.952;2023-04-06T11:27:04;100749.66;;;13.47;45.80
4586;BME280;2305;50.118;8.952;2023-04-06T11:29:34;100755.22;;;13.23;45.53
4586;BME280;2305;50.118;8.952;2023-04-06T11:32:05;100732.56;;;13.30;45.80
4586;BME280;2305;50.118;8.952;2023-04-06T11:34:36;100750.38;;;13.58;44.55
4586;BME280;2305;50.118;8.952;2023-04-06T11:37:08;100735.69;;;13.74;43.91
4586;BME280;2305;50.118;8.952;2023-04-06T11:39:39;100740.72;;;13.87;43.31
4586;BME280;2305;50.118;8.952;2023-04-06T11:42:09;100731.66;;;13.89;43.66
4586;BME280;2305;50.118;8.952;2023-04-06T11:44:38;100727.81;;;14.03;43.37
4586;BME280;2305;50.118;8.952;2023-04-06T11:47:09;100723.41;;;14.22;42.43
4586;BME280;2305;50.118;8.952;2023-04-06T11:49:39;100725.56;;;14.08;43.74
4586;BME280;2305;50.118;8.952;2023-04-06T11:52:15;100728.28;;;14.27;43.81
4586;BME280;2305;50.118;8.952;2023-04-06T11:54:50;100717.53;;;14.38;42.31
4586;BME280;2305;50.118;8.952;2023-04-06T11:57:21;100725.06;;;14.33;43.05
4586;BME280;2305;50.118;8.952;2023-04-06T11:59:50;100713.19;;;14.27;41.98
4586;BME280;2305;50.118;8.952;2023-04-06T12:02:18;100706.91;;;14.38;41.84
4586;BME280;2305;50.118;8.952;2023-04-06T12:04:46;100709.69;;;14.65;41.78
4586;BME280;2305;50.118;8.952;2023-04-06T12:07:19;100709.38;;;14.87;41.46
4586;BME280;2305;50.118;8.952;2023-04-06T12:09:47;100706.00;;;15.04;42.28
4586;BME280;2305;50.118;8.952;2023-04-06T12:12:17;100706.81;;;15.04;42.09
4586;BME280;2305;50.118;8.952;2023-04-06T12:14:49;100710.31;;;15.05;41.17
4586;BME280;2305;50.118;8.952;2023-04-06T12:17:19;100696.22;;;15.04;42.70
4586;BME280;2305;50.118;8.952;2023-04-06T12:19:49;100697.50;;;15.37;41.77
4586;BME280;2305;50.118;8.952;2023-04-06T12:22:17;100699.06;;;15.66;42.20
4586;BME280;2305;50.118;8.952;2023-04-06T12:24:46;100704.00;;;15.52;38.92
4586;BME280;2305;50.118;8.952;2023-04-06T12:27:15;100708.56;;;15.69;38.73
4586;BME280;2305;50.118;8.952;2023-04-06T12:29:44;100692.56;;;15.78;38.63
4586;BME280;2305;50.118;8.952;2023-04-06T12:32:16;100688.25;;;15.77;38.38
4586;BME280;2305;50.118;8.952;2023-04-06T12:34:46;100694.81;;;16.00;38.75
4586;BME280;2305;50.118;8.952;2023-04-06T12:37:14;100688.72;;;16.08;40.51
4586;BME280;2305;50.118;8.952;2023-04-06T12:39:42;100679.53;;;16.20;40.35
4586;BME280;2305;50.118;8.952;2023-04-06T12:42:12;100682.66;;;16.33;38.31
4586;BME280;2305;50.118;8.952;2023-04-06T12:44:43;100677.28;;;16.42;38.55
4586;BME280;2305;50.118;8.952;2023-04-06T12:47:12;100670.19;;;16.51;38.82
4586;BME280;2305;50.118;8.952;2023-04-06T12:49:41;100671.69;;;16.71;37.52
4586;BME280;2305;50.118;8.952;2023-04-06T12:52:10;100670.34;;;16.92;37.66
4586;BME280;2305;50.118;8.952;2023-04-06T12:54:38;100671.06;;;17.02;35.42
4586;BME280;2305;50.118;8.952;2023-04-06T12:57:06;100666.41;;;17.04;36.20
4586;BME280;2305;50.118;8.952;2023-04-06T12:59:35;100668.63;;;17.09;36.95
4586;BME280;2305;50.118;8.952;2023-04-06T13:02:04;100665.09;;;17.08;36.76
4586;BME280;2305;50.118;8.952;2023-04-06T13:04:32;100674.97;;;16.65;36.48
4586;BME280;2305;50.118;8.952;2023-04-06T13:07:06;100676.22;;;16.53;37.17
4586;BME280;2305;50.118;8.952;2023-04-06T13:09:35;100668.59;;;16.40;36.13
4586;BME280;2305;50.118;8.952;2023-04-06T13:12:04;100664.72;;;16.17;36.58
4586;BME280;2305;50.118;8.952;2023-04-06T13:14:32;100674.88;;;16.04;36.80
4586;BME280;2305;50.118;8.952;2023-04-06T13:17:03;100663.59;;;16.02;36.91
4586;BME280;2305;50.118;8.952;2023-04-06T13:19:32;100654.41;;;16.49;36.09
4586;BME280;2305;50.118;8.952;2023-04-06T13:22:01;100655.03;;;16.69;37.81
4586;BME280;2305;50.118;8.952;2023-04-06T13:24:31;100651.84;;;17.16;37.05
4586;BME280;2305;50.118;8.952;2023-04-06T13:27:02;100658.94;;;16.82;34.38
4586;BME280;2305;50.118;8.952;2023-04-06T13:29:34;100654.84;;;16.88;35.46
4586;BME280;2305;50.118;8.952;2023-04-06T13:32:04;100648.75;;;17.03;36.38
4586;BME280;2305;50.118;8.952;2023-04-06T13:34:33;100650.38;;;16.96;36.41